Time;durP1;ratioP1;P1;durP2;ratioP2;P2;SDS_P1;SDS_P2;PMS_P1;PMS_P2;Temp;Humidity;BMP_temperature;BMP_pressure;BME280_temperature;BME280_humidity;BME280_pressure;Samples;Min_cycle;Max_cycle;Signal;HPM_P1;HPM_P2
2022/05/07 00:01:22;;;;;;;7.70;6.53;;;;;;;14.24;57.90;99381.63;7001809;28;20351;-80
2022/05/07 00:04:44;;;;;;;9.17;6.47;;;;;;;14.70;56.11;99371.38;7003132;28;20213;-79
2022/05/07 00:08:06;;;;;;;7.37;5.90;;;;;;;14.52;56.17;99374.00;7002562;28;20195;-79
2022/05/07 00:11:28;;;;;;;8.60;6.60;;;;;;;14.13;57.12;99365.97;7002537;28;20258;-79
2022/05/07 00:14:49;;;;;;;8.03;7.20;;;;;;;13.69;58.57;99374.03;7002749;28;20290;-79
2022/05/07 00:18:12;;;;;;;9.10;7.30;;;;;;;13.66;59.04;99367.16;7001506;28;20243;-80
2022/05/07 00:21:33;;;;;;;9.07;6.63;;;;;;;14.10;58.00;99371.84;7002114;28;20225;-79
2022/05/07 00:24:55;;;;;;;7.50;6.70;;;;;;;14.10;57.07;99361.81;7002132;28;20250;-79
2022/05/07 00:28:16;;;;;;;7.23;6.53;;;;;;;14.05;57.69;99345.34;7001206;28;20214;-79
2022/05/07 00:31:38;;;;;;;6.87;6.27;;;;;;;14.33;56.92;99359.44;7001683;28;20259;-79
2022/05/07 00:35:01;;;;;;;7.23;6.10;;;;;;;14.37;56.76;99354.44;7002323;28;20230;-79
2022/05/07 00:38:22;;;;;;;9.87;6.73;;;;;;;13.99;56.33;99359.75;7001305;28;20288;-79
2022/05/07 00:41:44;;;;;;;9.63;7.23;;;;;;;13.98;56.91;99346.44;7000883;28;20231;-79
2022/05/07 00:45:06;;;;;;;6.67;5.67;;;;;;;14.11;56.54;99343.66;7006291;28;20234;-79
2022/05/07 00:48:28;;;;;;;7.77;6.70;;;;;;;14.14;56.50;99352.22;7014681;28;20236;-79
2022/05/07 00:51:51;;;;;;;7.53;6.60;;;;;;;13.89;57.03;99345.84;7006149;28;20225;-80
2022/05/07 00:55:14;;;;;;;9.77;7.03;;;;;;;14.05;56.63;99355.38;7002024;28;20230;-79
2022/05/07 00:58:36;;;;;;;8.90;7.30;;;;;;;13.78;57.14;99332.94;7001056;28;20765;-80
2022/05/07 01:01:57;;;;;;;8.87;7.00;;;;;;;13.79;57.04;99358.13;7000766;28;20363;-80
2022/05/07 01:05:19;;;;;;;9.17;7.40;;;;;;;13.51;57.29;99344.03;7002158;28;20220;-79
2022/05/07 01:08:42;;;;;;;11.33;6.70;;;;;;;13.73;57.75;99359.84;7001118;28;20201;-79
2022/05/07 01:12:04;;;;;;;11.03;6.90;;;;;;;13.46;57.44;99300.50;7002132;28;20217;-79
2022/05/07 01:15:26;;;;;;;10.47;7.23;;;;;;;13.42;57.85;99345.28;6966520;28;20214;-79
2022/05/07 01:18:48;;;;;;;9.20;6.90;;;;;;;13.56;56.96;99309.00;7001117;28;20227;-79
2022/05/07 01:22:11;;;;;;;9.53;7.30;;;;;;;13.33;56.92;99338.44;7001430;28;20233;-80
2022/05/07 01:25:36;;;;;;;8.20;7.40;;;;;;;12.69;58.56;99310.28;7001622;28;20344;-79
2022/05/07 01:29:03;;;;;;;8.80;8.00;;;;;;;13.16;59.14;99331.78;7000788;28;20209;-79
2022/05/07 01:32:24;;;;;;;9.83;7.17;;;;;;;12.93;58.90;99304.25;7001669;28;20686;-79
2022/05/07 01:39:38;;;;;;;8.20;7.40;;;;;;;13.05;58.91;99346.75;7004702;28;20230;-79
2022/05/07 01:43:00;;;;;;;7.47;6.77;;;;;;;12.72;59.63;99334.19;7004599;28;20225;-80
2022/05/07 01:50:01;;;;;;;7.40;6.63;;;;;;;13.45;57.07;99329.44;7005908;28;20183;-80
2022/05/07 01:53:23;;;;;;;8.70;7.80;;;;;;;13.15;57.78;99327.41;7001527;28;20221;-79
2022/05/07 01:56:46;;;;;;;9.00;7.33;;;;;;;13.02;57.04;99275.94;7001422;28;20204;-80
2022/05/07 02:00:08;;;;;;;7.97;7.20;;;;;;;13.01;57.85;99331.97;6999782;28;20229;-79
2022/05/07 02:03:30;;;;;;;9.50;7.47;;;;;;;12.89;58.28;99344.44;7002177;28;20248;-79
2022/05/07 02:06:52;;;;;;;8.37;7.63;;;;;;;12.54;59.63;99345.63;7005588;28;20271;-79
2022/05/07 02:10:14;;;;;;;8.67;7.77;;;;;;;12.35;60.16;99346.41;7006151;28;20689;-79
2022/05/07 02:13:37;;;;;;;12.77;8.37;;;;;;;12.46;59.94;99331.44;7006475;28;20258;-79
2022/05/07 02:17:01;;;;;;;8.10;7.40;;;;;;;12.46;59.90;99336.88;7005148;28;20212;-79
2022/05/07 02:20:23;;;;;;;10.60;7.80;;;;;;;12.47;59.54;99309.63;7005667;28;20275;-79
2022/05/07 02:23:45;;;;;;;8.63;6.10;;;;;;;12.77;56.78;99269.47;7005921;28;20589;-80
2022/05/07 02:27:06;;;;;;;8.20;7.40;;;;;;;12.84;57.62;99344.22;7005370;28;20267;-79
2022/05/07 02:30:29;;;;;;;8.50;7.70;;;;;;;12.67;59.19;99340.22;7005364;28;20257;-79
2022/05/07 02:33:51;;;;;;;8.27;7.47;;;;;;;12.89;58.19;99349.00;7005183;28;20320;-79
2022/05/07 02:37:13;;;;;;;8.27;7.40;;;;;;;12.16;58.55;99340.94;7004621;28;20206;-80
2022/05/07 02:42:33;;;;;;;9.87;8.07;;;;;;;12.49;58.86;99331.03;7004643;28;20648;-79
2022/05/07 02:44:15;;;;;;;9.73;8.03;;;;;;;12.41;58.26;99286.09;7004799;28;20288;-79
2022/05/07 02:47:39;;;;;;;8.97;7.10;;;;;;;12.69;57.92;99348.16;7006591;28;20252;-78
2022/05/07 02:51:00;;;;;;;10.47;7.53;;;;;;;12.50;58.82;99352.47;7006489;28;20347;-78
2022/05/07 02:54:22;;;;;;;8.50;7.63;;;;;;;12.28;59.52;99356.34;7007633;28;20231;-78
2022/05/07 02:57:43;;;;;;;10.63;7.93;;;;;;;12.47;59.34;99358.31;7005657;28;20291;-78
2022/05/07 03:01:05;;;;;;;8.53;7.63;;;;;;;12.79;58.46;99352.13;7005471;28;20317;-78
2022/05/07 03:04:28;;;;;;;8.03;7.23;;;;;;;12.63;57.98;99343.56;7007245;28;20213;-78
2022/05/07 03:07:49;;;;;;;9.47;8.47;;;;;;;12.82;57.37;99354.44;7005780;28;20212;-79
2022/05/07 03:11:11;;;;;;;11.03;8.53;;;;;;;12.45;57.85;99352.25;7006186;28;20579;-78
2022/05/07 03:14:33;;;;;;;8.73;7.80;;;;;;;11.91;59.32;99364.06;7006398;28;20245;-78
2022/05/07 03:17:54;;;;;;;10.53;8.07;;;;;;;12.07;59.73;99353.78;7005778;28;20205;-79
2022/05/07 03:21:17;;;;;;;12.03;8.83;;;;;;;11.85;59.08;99292.75;7005189;28;20275;-79
2022/05/07 03:24:40;;;;;;;9.40;7.47;;;;;;;12.51;58.08;99350.59;7004925;28;20212;-78
2022/05/07 03:28:02;;;;;;;8.50;7.63;;;;;;;12.54;57.46;99353.75;7004492;28;20259;-79
2022/05/07 03:31:23;;;;;;;9.53;7.93;;;;;;;12.12;57.44;99299.09;7005921;28;20316;-79
2022/05/07 03:34:45;;;;;;;12.77;8.17;;;;;;;12.06;57.70;99345.88;7005923;28;20645;-80
2022/05/07 03:38:07;;;;;;;9.87;7.93;;;;;;;12.13;58.39;99344.00;7005792;28;20687;-79
2022/05/07 03:41:29;;;;;;;10.27;8.73;;;;;;;11.87;58.36;99322.28;7022278;28;20238;-81
2022/05/07 03:44:51;;;;;;;9.57;8.57;;;;;;;11.94;58.74;99351.03;7035037;28;20253;-79
2022/05/07 03:48:12;;;;;;;10.07;8.90;;;;;;;11.63;59.76;99355.19;7034259;28;20196;-79
2022/05/07 03:53:29;;;;;;;10.73;8.93;;;;;;;11.96;59.82;99350.78;7034953;28;20255;-79
2022/05/07 03:55:16;;;;;;;10.17;9.17;;;;;;;11.70;59.62;99350.66;7033535;28;20231;-79
2022/05/07 03:58:38;;;;;;;12.87;9.80;;;;;;;11.46;60.78;99362.72;7010213;28;20250;-79
2022/05/07 04:02:00;;;;;;;11.70;10.10;;;;;;;11.53;60.59;99351.97;7005512;28;20261;-79
2022/05/07 04:05:21;;;;;;;10.90;7.93;;;;;;;12.15;59.00;99350.88;7007701;28;20214;-79
2022/05/07 04:08:45;;;;;;;8.93;8.03;;;;;;;12.09;58.75;99351.69;7004967;28;20233;-79
2022/05/07 04:12:11;;;;;;;9.37;8.47;;;;;;;11.91;58.25;99340.59;7005495;28;20217;-79
2022/05/07 04:15:32;;;;;;;10.17;9.00;;;;;;;12.10;58.43;99361.47;7005714;28;20580;-79
2022/05/07 04:18:55;;;;;;;13.97;9.57;;;;;;;11.12;60.52;99370.78;7004768;28;20662;-79
2022/05/07 04:22:17;;;;;;;11.67;9.17;;;;;;;11.64;60.23;99373.06;7005103;28;20683;-79
2022/05/07 04:25:39;;;;;;;12.70;8.30;;;;;;;11.74;59.84;99363.56;7013947;28;20209;-80
2022/05/07 04:29:02;;;;;;;9.37;8.20;;;;;;;12.16;58.50;99347.16;7005371;28;20210;-79
2022/05/07 04:32:23;;;;;;;8.83;7.93;;;;;;;12.30;57.68;99361.56;7004157;28;20359;-79
2022/05/07 04:35:48;;;;;;;13.63;8.63;;;;;;;11.63;58.60;99368.72;7032004;28;20205;-80
2022/05/07 04:39:10;;;;;;;13.93;9.57;;;;;;;11.50;59.79;99364.00;7031791;28;20583;-79
2022/05/07 04:42:31;;;;;;;10.10;8.87;;;;;;;11.49;60.19;99366.91;7032455;28;20213;-79
2022/05/07 04:45:54;;;;;;;10.50;9.43;;;;;;;11.66;60.29;99360.19;7031424;28;20207;-79
2022/05/07 04:49:19;;;;;;;13.30;9.60;;;;;;;11.87;59.57;99358.22;7031793;28;20201;-79
2022/05/07 04:52:41;;;;;;;10.57;9.33;;;;;;;12.14;59.27;99356.50;7031862;28;20247;-79
2022/05/07 04:56:02;;;;;;;10.40;9.20;;;;;;;12.13;58.89;99369.19;7031228;28;20205;-80
2022/05/07 04:59:31;;;;;;;9.97;9.00;;;;;;;12.09;58.74;99369.81;7031311;28;20201;-79
2022/05/07 05:02:54;;;;;;;12.23;10.93;;;;;;;11.88;60.67;99386.09;7031859;28;20701;-79
2022/05/07 05:06:16;;;;;;;13.63;9.87;;;;;;;12.04;60.20;99383.06;7017470;28;20212;-79
2022/05/07 05:09:37;;;;;;;13.07;10.30;;;;;;;12.50;59.75;99394.91;7029540;28;20361;-78
2022/05/07 05:12:59;;;;;;;12.20;9.33;;;;;;;12.71;59.10;99390.19;7002546;28;20226;-80
2022/05/07 05:16:20;;;;;;;10.27;9.27;;;;;;;13.04;58.47;99384.88;7002544;28;20574;-79
2022/05/07 05:19:43;;;;;;;10.73;9.13;;;;;;;13.49;57.34;99375.91;7002565;28;20232;-79
2022/05/07 05:23:06;;;;;;;12.07;9.40;;;;;;;13.70;57.20;99375.69;7002004;28;20312;-80
2022/05/07 05:26:27;;;;;;;10.07;9.07;;;;;;;13.42;57.42;99362.38;7002004;28;20213;-79
2022/05/07 05:29:49;;;;;;;11.90;10.00;;;;;;;13.49;57.05;99357.78;7002840;28;20217;-80
2022/05/07 05:36:48;;;;;;;12.20;9.30;;;;;;;14.02;58.22;99372.91;7000572;28;20710;-80
2022/05/07 05:40:10;;;;;;;9.60;8.60;;;;;;;14.86;56.36;99379.03;7005855;28;20620;-79
2022/05/07 05:43:31;;;;;;;8.07;7.07;;;;;;;15.36;54.90;99354.44;7008486;28;20288;-79
2022/05/07 05:46:53;;;;;;;8.17;7.37;;;;;;;15.84;54.51;99392.66;7007007;28;20205;-79
2022/05/07 05:50:14;;;;;;;7.90;7.13;;;;;;;15.85;54.37;99395.16;7006630;28;20206;-79
2022/05/07 05:53:37;;;;;;;8.73;7.87;;;;;;;16.36;53.33;99392.06;7008475;28;20230;-80
2022/05/07 05:56:59;;;;;;;10.20;8.53;;;;;;;16.22;53.76;99398.75;7007253;28;20209;-79
2022/05/07 06:00:21;;;;;;;9.07;8.17;;;;;;;16.21;52.65;99315.47;7007112;28;20233;-80
2022/05/07 06:03:43;;;;;;;9.97;8.30;;;;;;;17.06;51.19;99397.66;7007634;28;20257;-79
2022/05/07 06:07:04;;;;;;;8.40;7.50;;;;;;;16.27;53.01;99402.44;7010597;28;20215;-80
2022/05/07 06:10:27;;;;;;;8.33;7.53;;;;;;;16.07;54.35;99398.28;7014865;28;20211;-80
2022/05/07 06:13:50;;;;;;;10.17;8.23;;;;;;;16.35;54.49;99387.69;7009486;28;20230;-79
2022/05/07 06:17:11;;;;;;;12.37;8.90;;;;;;;16.78;53.68;99386.53;7012211;28;20205;-79
2022/05/07 06:20:33;;;;;;;11.30;9.47;;;;;;;16.40;54.56;99388.69;7020726;28;20254;-79
2022/05/07 06:23:54;;;;;;;9.33;8.40;;;;;;;16.73;53.95;99370.06;7016115;28;20259;-79
2022/05/07 06:27:28;;;;;;;10.60;8.80;;;;;;;17.68;51.96;99393.56;7008644;28;20212;-79
2022/05/07 06:30:50;;;;;;;8.73;7.83;;;;;;;17.77;51.61;99383.94;7009503;28;20217;-79
2022/05/07 06:34:13;;;;;;;9.57;8.57;;;;;;;18.23;51.39;99394.81;7010222;28;20230;-79
2022/05/07 06:37:36;;;;;;;8.57;7.67;;;;;;;18.00;51.46;99405.75;7008193;28;20202;-79
2022/05/07 06:41:02;;;;;;;8.30;7.23;;;;;;;18.55;50.15;99398.81;7009125;28;20712;-79
2022/05/07 06:44:24;;;;;;;8.30;7.43;;;;;;;19.21;49.03;99394.41;7009311;28;20710;-79
2022/05/07 06:47:46;;;;;;;7.60;6.80;;;;;;;19.34;48.41;99388.63;7008629;28;20338;-80
2022/05/07 06:51:08;;;;;;;10.90;7.00;;;;;;;18.84;49.39;99354.03;7008708;28;20570;-79
2022/05/07 06:54:29;;;;;;;9.57;7.13;;;;;;;19.17;48.09;99316.66;7008643;28;20206;-79
2022/05/07 06:57:53;;;;;;;8.93;7.57;;;;;;;20.21;46.31;99365.94;7008676;28;20678;-79
2022/05/07 07:01:18;;;;;;;8.30;7.17;;;;;;;20.37;46.45;99377.94;7039324;28;20234;-79
2022/05/07 07:04:39;;;;;;;9.13;7.97;;;;;;;20.82;44.64;99389.47;7038746;28;20243;-79
2022/05/07 07:08:01;;;;;;;8.40;7.00;;;;;;;20.78;45.55;99389.16;7009282;28;20210;-79
2022/05/07 07:11:22;;;;;;;8.50;7.50;;;;;;;20.84;45.20;99377.16;7008688;28;20317;-79
2022/05/07 07:14:44;;;;;;;9.83;7.27;;;;;;;20.50;46.24;99388.50;7008884;28;20205;-78
2022/05/07 07:18:09;;;;;;;7.47;6.87;;;;;;;20.58;46.08;99355.19;7006071;28;20217;-78
2022/05/07 07:21:31;;;;;;;7.57;6.50;;;;;;;20.42;45.73;99367.03;7008964;28;20235;-78
2022/05/07 07:24:52;;;;;;;8.27;6.67;;;;;;;20.33;46.09;99344.75;7009848;28;20227;-78
2022/05/07 07:28:14;;;;;;;7.40;6.70;;;;;;;20.70;46.00;99384.09;7008852;28;20207;-79
2022/05/07 07:31:36;;;;;;;7.83;7.13;;;;;;;21.10;44.93;99368.13;7006825;28;20598;-79
2022/05/07 07:34:59;;;;;;;7.73;7.03;;;;;;;21.74;43.77;99367.94;7004984;28;20299;-79
2022/05/07 07:38:21;;;;;;;7.23;6.53;;;;;;;21.70;43.79;99369.53;7004031;28;20212;-79
2022/05/07 07:41:43;;;;;;;7.57;6.87;;;;;;;21.74;44.20;99376.16;7004302;28;20235;-79
2022/05/07 07:48:46;;;;;;;7.67;6.87;;;;;;;22.50;41.85;99367.31;7008473;28;20189;-79
2022/05/07 07:52:09;;;;;;;7.33;6.63;;;;;;;23.12;41.33;99365.31;7009315;28;20265;-78
2022/05/07 07:55:31;;;;;;;8.93;6.93;;;;;;;21.93;41.52;99351.84;7009613;28;20220;-78
2022/05/07 07:58:52;;;;;;;7.53;6.77;;;;;;;21.17;43.74;99370.69;7013912;28;20260;-78
2022/05/07 08:02:14;;;;;;;9.13;6.53;;;;;;;22.66;41.52;99368.22;7036140;28;20278;-79
2022/05/07 08:05:37;;;;;;;7.43;6.63;;;;;;;23.72;38.98;99351.59;7037643;28;20211;-78
2022/05/07 08:12:39;;;;;;;8.27;7.47;;;;;;;22.91;39.29;99366.38;7037500;28;20675;-78
2022/05/07 08:16:00;;;;;;;7.90;6.93;;;;;;;23.27;39.44;99364.53;7036713;28;20218;-78
2022/05/07 08:19:22;;;;;;;8.17;7.37;;;;;;;23.80;38.01;99355.72;7037182;28;20199;-78
2022/05/07 08:22:44;;;;;;;7.87;7.13;;;;;;;23.57;37.92;99326.00;7037768;28;20233;-78
2022/05/07 08:26:07;;;;;;;8.03;7.33;;;;;;;23.20;39.42;99334.53;7037367;28;20209;-78
2022/05/07 08:29:29;;;;;;;7.90;7.20;;;;;;;22.53;38.96;99286.25;7038482;28;20207;-78
2022/05/07 08:32:51;;;;;;;10.07;7.17;;;;;;;23.11;39.21;99349.91;7037700;28;20229;-78
2022/05/07 08:36:13;;;;;;;8.37;7.57;;;;;;;23.40;39.19;99340.06;7037281;28;20304;-79
2022/05/07 08:39:34;;;;;;;7.53;6.80;;;;;;;25.10;35.55;99350.63;7037800;28;20209;-79
2022/05/07 08:42:58;;;;;;;9.50;7.40;;;;;;;25.09;34.85;99337.94;7037632;28;20254;-79
2022/05/07 08:46:20;;;;;;;7.37;6.60;;;;;;;24.46;36.13;99330.53;7037689;28;20207;-79
2022/05/07 08:49:41;;;;;;;8.07;6.50;;;;;;;25.65;34.29;99316.28;7036879;28;20274;-79
2022/05/07 08:53:03;;;;;;;7.90;6.83;;;;;;;26.66;32.79;99339.78;7038488;28;20230;-79
2022/05/07 08:56:25;;;;;;;7.63;6.80;;;;;;;25.59;34.71;99345.84;7039660;28;20201;-79
2022/05/07 08:59:52;;;;;;;7.67;6.90;;;;;;;25.93;34.14;99345.84;7038807;28;20205;-79
2022/05/07 09:03:16;;;;;;;10.43;6.83;;;;;;;25.86;34.28;99335.13;7039278;28;20238;-78
2022/05/07 09:06:38;;;;;;;8.43;6.70;;;;;;;25.83;34.50;99323.84;7039182;28;20749;-79
2022/05/07 09:10:00;;;;;;;7.07;6.33;;;;;;;25.86;35.44;99326.84;7039690;28;20218;-79
2022/05/07 09:13:21;;;;;;;7.03;5.53;;;;;;;25.96;35.36;99326.75;7044093;28;20229;-80
2022/05/07 09:16:46;;;;;;;7.80;5.97;;;;;;;26.12;34.24;99311.66;7049129;28;20212;-79
2022/05/07 09:20:12;;;;;;;7.90;6.67;;;;;;;24.67;35.33;99311.97;7050396;28;20243;-80
2022/05/07 09:23:34;;;;;;;7.67;6.00;;;;;;;23.50;36.85;99319.97;7048932;28;20242;-79
2022/05/07 09:26:57;;;;;;;7.77;6.33;;;;;;;24.47;36.96;99312.03;7048415;28;20228;-79
2022/05/07 09:30:24;;;;;;;5.60;4.97;;;;;;;24.26;34.89;99307.72;7050074;28;20240;-79
2022/05/07 09:33:47;;;;;;;5.17;4.67;;;;;;;24.44;33.58;99320.88;7050047;28;20252;-79
2022/05/07 09:37:16;;;;;;;9.60;5.10;;;;;;;25.67;32.08;99323.13;7051334;28;20201;-79
2022/05/07 09:40:39;;;;;;;6.37;5.10;;;;;;;25.42;33.08;99298.50;7051863;28;20283;-79
2022/05/07 09:44:01;;;;;;;7.37;4.80;;;;;;;26.29;32.34;99306.47;7056157;28;20265;-79
2022/05/07 09:47:22;;;;;;;6.03;5.13;;;;;;;27.28;29.97;99311.81;7061568;28;20207;-79
2022/05/07 09:50:45;;;;;;;6.40;4.77;;;;;;;27.44;29.08;99301.28;7062879;28;20205;-79
2022/05/07 09:57:47;;;;;;;6.33;3.50;;;;;;;26.24;27.97;99301.00;7062709;28;20188;-80
2022/05/07 10:01:25;;;;;;;4.47;3.70;;;;;;;26.76;27.38;99272.41;7058488;28;21929;-79
2022/05/07 10:05:07;;;;;;;3.87;2.80;;;;;;;27.48;26.46;99292.06;7063352;28;20222;-79
2022/05/07 10:08:39;;;;;;;3.70;3.00;;;;;;;27.75;25.60;99283.84;7046610;28;20685;-79
2022/05/07 10:12:00;;;;;;;4.70;3.27;;;;;;;28.06;26.03;99270.22;7049119;28;20240;-79
2022/05/07 10:15:24;;;;;;;2.13;2.00;;;;;;;27.91;23.86;99251.97;7050608;28;20201;-81
2022/05/07 10:18:46;;;;;;;5.67;2.57;;;;;;;27.11;22.97;99271.88;7050059;28;20201;-79
2022/05/07 10:22:21;;;;;;;2.90;2.10;;;;;;;26.56;23.78;99281.84;7050183;28;20239;-79
2022/05/07 10:25:44;;;;;;;3.37;2.20;;;;;;;26.78;23.29;99272.97;7046586;28;20208;-80
2022/05/07 10:29:06;;;;;;;5.23;1.93;;;;;;;27.20;23.14;99265.38;7046182;28;20197;-79
2022/05/07 10:32:28;;;;;;;2.40;2.10;;;;;;;27.96;22.57;99271.25;7046730;28;20225;-80
2022/05/07 10:35:51;;;;;;;3.70;2.27;;;;;;;28.06;21.80;99268.28;7047697;28;20205;-79
2022/05/07 10:39:14;;;;;;;4.03;2.30;;;;;;;27.42;22.11;99253.69;7054613;28;20692;-79
2022/05/07 10:42:40;;;;;;;4.10;2.30;;;;;;;27.79;22.58;99259.13;7057248;28;20235;-79
2022/05/07 10:46:03;;;;;;;2.33;2.13;;;;;;;27.88;22.52;99249.81;7048606;28;20229;-79
2022/05/07 10:49:25;;;;;;;3.53;2.07;;;;;;;27.32;22.68;99254.66;7059162;28;20204;-79
2022/05/07 10:52:54;;;;;;;2.83;2.40;;;;;;;26.94;23.15;99253.06;7058476;28;20280;-79
2022/05/07 10:56:18;;;;;;;2.73;1.97;;;;;;;26.73;23.67;99239.81;7048923;28;20585;-79
2022/05/07 10:59:45;;;;;;;4.10;2.13;;;;;;;27.07;22.53;99248.72;7034159;28;20207;-79
2022/05/07 11:03:10;;;;;;;3.27;1.90;;;;;;;27.87;22.14;99241.78;7019472;28;20259;-80
2022/05/07 11:06:32;;;;;;;4.27;1.83;;;;;;;26.91;22.30;99248.13;7019475;28;20281;-79
2022/05/07 11:09:53;;;;;;;2.17;1.90;;;;;;;26.53;23.01;99240.06;7019463;28;20685;-79
2022/05/07 11:13:19;;;;;;;2.40;2.20;;;;;;;26.25;24.19;99218.91;7019798;28;20229;-79
2022/05/07 11:16:43;;;;;;;3.83;2.20;;;;;;;25.97;24.44;99237.22;7029968;28;20270;-79
2022/05/07 11:20:05;;;;;;;4.03;2.27;;;;;;;26.60;24.25;99238.63;7023713;28;20695;-80
2022/05/07 11:23:27;;;;;;;4.17;2.80;;;;;;;27.37;25.50;99228.84;7009838;28;20229;-80
2022/05/07 11:26:52;;;;;;;2.77;2.20;;;;;;;27.46;25.45;99233.38;7010475;28;20206;-80
2022/05/07 11:30:15;;;;;;;3.40;2.40;;;;;;;27.57;24.89;99234.84;7010916;28;20300;-80
2022/05/07 11:33:38;;;;;;;5.40;2.57;;;;;;;26.27;25.92;99189.84;7008705;28;20221;-80
2022/05/07 11:37:13;;;;;;;4.10;2.00;;;;;;;26.89;24.38;99219.09;7006800;28;20211;-79
2022/05/07 11:40:35;;;;;;;2.50;2.10;;;;;;;26.84;24.01;99217.22;7009008;28;20208;-79
2022/05/07 11:47:35;;;;;;;2.03;1.70;;;;;;;25.67;24.65;99215.41;7008098;28;20778;-79
2022/05/07 11:50:59;;;;;;;2.30;2.10;;;;;;;25.58;26.17;99181.25;7008233;28;20578;-79
2022/05/07 11:54:21;;;;;;;5.03;2.00;;;;;;;26.15;24.76;99213.50;7008334;28;20209;-80
2022/05/07 11:57:46;;;;;;;4.07;2.50;;;;;;;27.74;23.00;99212.06;7008038;28;20218;-80
2022/05/07 12:01:19;;;;;;;2.00;1.80;;;;;;;28.27;23.29;99191.03;7007428;28;20218;-80
2022/05/07 12:04:41;;;;;;;2.27;2.07;;;;;;;27.99;23.21;99162.53;7007707;28;20213;-79
2022/05/07 12:08:13;;;;;;;3.37;1.77;;;;;;;28.63;22.62;99191.91;7007312;28;20644;-80
2022/05/07 12:11:34;;;;;;;3.40;1.90;;;;;;;28.86;22.58;99177.75;7016643;28;20538;-81
2022/05/07 12:14:56;;;;;;;2.30;2.10;;;;;;;27.84;23.85;99173.13;7016981;28;20201;-79
2022/05/07 12:18:16;;;;;;;3.80;2.00;;;;;;;26.87;24.01;99185.34;7017388;28;20250;-80
2022/05/07 12:32:36;;;;;;;2.63;2.20;;;;;;;27.09;24.30;99180.00;7006694;28;20685;-81
2022/05/07 12:35:58;;;;;;;2.80;2.20;;;;;;;26.37;24.31;99177.81;7003845;28;20767;-81
2022/05/07 12:39:19;;;;;;;2.67;2.13;;;;;;;26.24;24.86;99182.13;7004217;28;20247;-81
2022/05/07 12:42:42;;;;;;;2.80;1.93;;;;;;;26.45;24.77;99179.91;7004329;28;20244;-80
2022/05/07 12:46:04;;;;;;;3.40;2.33;;;;;;;26.90;24.34;99177.28;7003743;28;20288;-80
2022/05/07 12:49:26;;;;;;;4.23;2.10;;;;;;;26.47;24.52;99177.66;7003785;28;20601;-80
2022/05/07 12:52:48;;;;;;;2.53;2.17;;;;;;;27.20;23.98;99179.56;7004408;28;20223;-81
2022/05/07 12:56:09;;;;;;;2.00;1.80;;;;;;;25.85;25.40;99173.22;7003737;28;20662;-81
2022/05/07 12:59:32;;;;;;;2.10;1.90;;;;;;;26.52;24.45;99180.34;7003251;28;20210;-80
2022/05/07 13:02:56;;;;;;;2.20;1.87;;;;;;;26.43;24.20;99168.31;7004261;28;20237;-80
2022/05/07 13:06:18;;;;;;;2.60;1.87;;;;;;;27.37;23.35;99146.56;7003090;28;20212;-80
2022/05/07 13:09:39;;;;;;;2.97;1.90;;;;;;;26.37;24.56;99172.28;7003929;28;20210;-81
2022/05/07 13:13:02;;;;;;;5.03;2.10;;;;;;;28.09;22.84;99159.56;7003529;28;20226;-80
2022/05/07 13:16:25;;;;;;;2.80;2.07;;;;;;;28.18;23.49;99152.13;7003604;28;20206;-81
2022/05/07 13:19:47;;;;;;;4.80;2.17;;;;;;;27.56;23.55;99158.41;7003794;28;20638;-80
2022/05/07 13:23:08;;;;;;;2.50;1.87;;;;;;;28.33;22.64;99148.19;7003935;28;20321;-80
2022/05/07 13:26:30;;;;;;;5.93;2.00;;;;;;;27.83;22.58;99141.81;7003571;28;20202;-80
2022/05/07 13:29:52;;;;;;;5.00;2.27;;;;;;;26.11;24.82;99143.31;7003850;28;20209;-81
2022/05/07 13:33:15;;;;;;;3.27;2.17;;;;;;;27.98;22.69;99152.56;7002957;28;20225;-81
2022/05/07 13:36:37;;;;;;;2.43;1.80;;;;;;;28.23;22.71;99137.31;7002813;28;20210;-81
2022/05/07 13:39:58;;;;;;;5.00;2.20;;;;;;;29.03;21.74;99139.06;7003248;28;20217;-81
2022/05/07 13:43:20;;;;;;;5.60;2.30;;;;;;;29.02;22.00;99133.81;7003379;28;20450;-81
2022/05/07 13:46:41;;;;;;;8.77;2.50;;;;;;;28.05;22.10;99125.25;7002387;28;20265;-80
2022/05/07 13:50:05;;;;;;;3.13;2.20;;;;;;;26.99;24.35;99127.59;7003317;28;20255;-80
2022/05/07 13:53:27;;;;;;;3.10;1.90;;;;;;;27.46;23.88;99130.91;7002831;28;20223;-81
2022/05/07 13:56:49;;;;;;;2.50;2.30;;;;;;;25.71;25.15;99127.28;7002338;28;20277;-80
2022/05/07 14:00:13;;;;;;;2.70;2.10;;;;;;;26.92;24.19;99138.22;7003390;28;20215;-80
2022/05/07 14:03:35;;;;;;;3.20;2.67;;;;;;;26.76;24.54;99101.69;7008280;28;20228;-80
2022/05/07 14:07:01;;;;;;;7.10;2.20;;;;;;;26.35;24.46;99130.25;7007832;28;20303;-80
2022/05/07 14:10:22;;;;;;;2.90;2.60;;;;;;;25.90;25.94;99130.91;7008377;28;20304;-81
2022/05/07 14:13:45;;;;;;;3.93;2.63;;;;;;;26.72;24.62;99131.09;7008118;28;20222;-81
2022/05/07 14:17:07;;;;;;;4.27;2.70;;;;;;;26.09;26.68;99082.84;7007424;28;20209;-80
2022/05/07 14:20:29;;;;;;;3.00;2.70;;;;;;;26.20;25.85;99128.53;7007836;28;20201;-80
2022/05/07 14:23:52;;;;;;;3.13;2.57;;;;;;;26.64;25.41;99120.72;7007650;28;20244;-80
2022/05/07 14:27:13;;;;;;;4.27;2.63;;;;;;;26.91;24.95;99114.44;7007591;28;20687;-80
2022/05/07 14:30:35;;;;;;;3.23;2.77;;;;;;;26.08;25.97;99114.34;7007837;28;20197;-80
2022/05/07 14:33:59;;;;;;;5.23;3.07;;;;;;;26.30;25.80;99120.09;7007978;28;20299;-80
2022/05/07 14:37:20;;;;;;;3.93;3.20;;;;;;;25.84;25.88;99113.53;7007324;28;20582;-80
2022/05/07 14:40:43;;;;;;;4.60;3.30;;;;;;;27.51;24.64;99114.19;7007879;28;20208;-80
2022/05/07 14:44:06;;;;;;;8.77;3.50;;;;;;;27.30;24.94;99074.16;7008616;28;20293;-80
2022/05/07 14:47:27;;;;;;;4.33;3.30;;;;;;;25.89;26.25;99090.56;7007301;28;20197;-81
2022/05/07 14:50:50;;;;;;;6.57;3.77;;;;;;;26.52;26.37;99113.97;7007522;28;20266;-80
2022/05/07 14:54:11;;;;;;;4.00;3.50;;;;;;;26.83;26.08;99107.66;7007015;28;20247;-81
2022/05/07 14:57:34;;;;;;;6.67;3.30;;;;;;;27.35;25.27;99107.28;7006927;28;20305;-81
2022/05/07 15:00:56;;;;;;;5.63;3.40;;;;;;;27.49;25.55;99077.63;7005759;28;20248;-81
2022/05/07 15:04:18;;;;;;;5.90;3.50;;;;;;;27.60;25.23;99094.88;7006538;28;20267;-81
2022/05/07 15:07:39;;;;;;;12.80;10.23;;;;;;;26.13;26.78;99105.19;7006844;28;20210;-80
2022/05/07 15:11:00;;;;;;;10.17;6.90;;;;;;;26.08;26.67;99103.28;7014311;28;20266;-80
2022/05/07 15:14:24;;;;;;;5.93;3.60;;;;;;;25.43;27.32;99104.09;7013762;28;20205;-80
2022/05/07 15:17:45;;;;;;;17.27;12.13;;;;;;;25.47;27.91;99107.94;7008811;28;20766;-81
2022/05/07 15:21:07;;;;;;;13.13;10.20;;;;;;;24.97;28.07;99080.88;7017065;28;20212;-80
2022/05/07 15:24:29;;;;;;;6.03;4.20;;;;;;;25.80;27.48;99084.03;7016444;28;20232;-80
2022/05/07 15:27:50;;;;;;;5.83;3.90;;;;;;;25.44;27.60;99064.34;7006087;28;20204;-80
2022/05/07 15:31:13;;;;;;;4.10;3.70;;;;;;;25.80;27.96;99087.63;7005958;28;20287;-80
2022/05/07 15:38:14;;;;;;;6.07;4.00;;;;;;;26.64;26.98;99089.44;7004705;28;20626;-81
2022/05/07 15:41:36;;;;;;;5.27;3.67;;;;;;;26.09;26.01;99019.28;7004688;28;20283;-81
2022/05/07 15:44:57;;;;;;;6.67;5.20;;;;;;;25.67;27.59;99069.00;7005277;28;20233;-80
2022/05/07 15:48:20;;;;;;;5.47;4.30;;;;;;;26.39;27.27;99096.19;7004884;28;20235;-80
2022/05/07 15:51:43;;;;;;;5.00;4.00;;;;;;;26.64;27.33;99087.53;7004960;28;20281;-81
2022/05/07 15:55:06;;;;;;;9.77;5.20;;;;;;;25.59;27.99;99086.25;7004723;28;20909;-80
2022/05/07 15:58:27;;;;;;;5.93;5.30;;;;;;;26.33;27.06;99083.56;7005624;28;20701;-80
2022/05/07 16:01:50;;;;;;;6.37;3.93;;;;;;;26.55;26.01;99074.69;7031271;28;20310;-79
2022/05/07 16:05:13;;;;;;;5.17;3.70;;;;;;;25.44;27.34;99078.16;7023246;28;20270;-80
2022/05/07 16:08:34;;;;;;;4.80;3.63;;;;;;;25.62;27.39;99082.06;7004092;28;20205;-80
2022/05/07 16:11:56;;;;;;;4.10;3.60;;;;;;;26.37;27.16;99092.91;7004133;28;20220;-80
2022/05/07 16:15:17;;;;;;;5.40;3.33;;;;;;;24.97;28.25;99080.88;7004806;28;20611;-80
2022/05/07 16:18:39;;;;;;;5.80;3.63;;;;;;;25.86;26.63;99091.97;7003810;28;20679;-80
2022/05/07 16:22:03;;;;;;;3.63;3.30;;;;;;;25.61;26.67;99075.72;7004082;28;20230;-80
2022/05/07 16:25:23;;;;;;;7.27;3.50;;;;;;;25.71;26.96;99083.88;7004114;28;20203;-80
2022/05/07 16:28:45;;;;;;;3.53;3.23;;;;;;;26.11;26.72;99080.59;7002655;28;20213;-81
2022/05/07 16:32:08;;;;;;;5.33;3.50;;;;;;;26.54;26.73;99079.38;7004129;28;20559;-80